Time;durP1;ratioP1;P1;durP2;ratioP2;P2;SDS_P1;SDS_P2;PMS_P1;PMS_P2;Temp;Humidity;BMP_temperature;BMP_pressure;BME280_temperature;BME280_humidity;BME280_pressure;Samples;Min_cycle;Max_cycle;Signal;HPM_P1;HPM_P2
2021/12/07 00:00:35;;;;;;;26.38;15.68;;;4.40;97.00;;;;;;4935083;29;20028;-62
2021/12/07 00:03:01;;;;;;;28.33;16.77;;;4.40;97.00;;;;;;4934829;29;20051;-62
2021/12/07 00:05:26;;;;;;;29.98;16.60;;;4.40;96.90;;;;;;4935067;29;20024;-62
2021/12/07 00:07:52;;;;;;;28.70;15.23;;;4.30;96.90;;;;;;4945558;28;20472;-62
2021/12/07 00:10:18;;;;;;;27.80;17.02;;;4.30;96.80;;;;;;4934621;29;20035;-62
2021/12/07 00:12:45;;;;;;;25.00;15.27;;;4.20;96.80;;;;;;4934124;29;20016;-62
2021/12/07 00:15:16;;;;;;;29.02;16.67;;;4.20;96.80;;;;;;4934816;29;20051;-62
2021/12/07 00:17:42;;;;;;;29.05;16.05;;;4.20;96.80;;;;;;4934223;29;20027;-62
2021/12/07 00:20:14;;;;;;;28.35;16.52;;;4.20;97.10;;;;;;4934526;29;20035;-62
2021/12/07 00:22:41;;;;;;;29.17;16.52;;;4.10;96.90;;;;;;4934253;29;20110;-61
2021/12/07 00:25:08;;;;;;;31.25;17.33;;;4.10;96.90;;;;;;4934378;29;20148;-61
2021/12/07 00:27:34;;;;;;;30.55;16.83;;;4.10;96.90;;;;;;4933878;28;20103;-62
2021/12/07 00:30:00;;;;;;;30.55;17.52;;;4.10;96.90;;;;;;4934477;29;20484;-62
2021/12/07 00:32:32;;;;;;;28.42;17.00;;;4.00;96.90;;;;;;4934313;29;20070;-62
2021/12/07 00:37:47;;;;;;;29.42;15.75;;;4.00;96.90;;;;;;4934110;29;20424;-62
2021/12/07 00:40:17;;;;;;;29.45;16.60;;;4.00;96.90;;;;;;4934965;29;20043;-62
2021/12/07 00:42:43;;;;;;;26.83;14.50;;;3.90;96.80;;;;;;4934124;29;20055;-62
2021/12/07 00:45:09;;;;;;;27.45;15.23;;;3.90;96.80;;;;;;4934568;29;20027;-62
2021/12/07 00:47:35;;;;;;;26.48;15.88;;;3.80;96.80;;;;;;4935855;29;20035;-63
2021/12/07 00:50:02;;;;;;;28.70;15.93;;;3.70;96.80;;;;;;4933891;29;20023;-62
2021/12/07 00:52:27;;;;;;;29.23;16.23;;;3.70;96.80;;;;;;4933487;29;20130;-61
2021/12/07 00:54:53;;;;;;;29.40;16.73;;;3.60;96.80;;;;;;4933279;29;20472;-62
2021/12/07 00:57:20;;;;;;;25.95;15.93;;;3.60;96.80;;;;;;4932408;29;20034;-62
2021/12/07 00:59:46;;;;;;;28.10;15.23;;;3.60;96.80;;;;;;4933982;29;20293;-63
2021/12/07 01:02:11;;;;;;;26.85;14.90;;;3.50;96.80;;;;;;4933307;29;20036;-62
2021/12/07 01:04:37;;;;;;;27.27;14.98;;;3.50;96.80;;;;;;4933859;29;20035;-62
2021/12/07 01:07:06;;;;;;;29.70;16.77;;;3.40;96.90;;;;;;4916275;29;20024;-62
2021/12/07 01:25:52;;;;;;;30.83;16.00;;;3.20;97.10;;;;;;4933226;29;20410;-62
2021/12/07 01:30:53;;;;;;;27.58;15.40;;;3.20;97.20;;;;;;4928749;29;20028;-62
2021/12/07 01:33:35;;;;;;;29.83;15.13;;;3.10;97.20;;;;;;4940727;28;20048;-62
2021/12/07 01:38:38;;;;;;;28.77;15.85;;;3.10;97.30;;;;;;4933048;29;20032;-62
2021/12/07 01:44:07;;;;;;;26.70;15.40;;;3.10;97.30;;;;;;4918920;29;20035;-62
2021/12/07 01:49:57;;;;;;;27.58;14.95;;;3.00;97.30;;;;;;4933678;29;20038;-62
2021/12/07 01:57:52;;;;;;;23.95;13.13;;;3.00;97.30;;;;;;4933096;29;20499;-62
2021/12/07 02:00:14;;;;;;;24.30;15.00;;;3.00;97.30;;;;;;4933628;29;20043;-61
2021/12/07 02:02:41;;;;;;;29.20;15.45;;;3.00;97.30;;;;;;4937178;29;20558;-61
2021/12/07 02:05:07;;;;;;;26.50;14.68;;;2.90;97.30;;;;;;4936674;29;20035;-62
2021/12/07 02:07:33;;;;;;;29.73;14.77;;;2.90;97.30;;;;;;4937028;29;20122;-62
2021/12/07 02:10:05;;;;;;;30.85;14.55;;;2.90;97.40;;;;;;4937598;29;20242;-61
2021/12/07 02:12:41;;;;;;;30.15;16.15;;;2.90;97.40;;;;;;4935913;29;20032;-62
2021/12/07 02:15:07;;;;;;;27.20;14.82;;;2.80;97.40;;;;;;4937429;29;20512;-61
2021/12/07 02:17:34;;;;;;;27.25;15.30;;;2.80;97.40;;;;;;4936610;29;20483;-61
2021/12/07 02:19:59;;;;;;;31.65;16.42;;;2.80;97.40;;;;;;4937162;29;20043;-62
2021/12/07 02:22:25;;;;;;;27.65;15.13;;;2.70;97.40;;;;;;4936682;29;20035;-62
2021/12/07 02:24:51;;;;;;;27.65;15.63;;;2.70;97.40;;;;;;4937286;29;20028;-62
2021/12/07 02:27:16;;;;;;;27.83;14.48;;;2.70;97.50;;;;;;4936351;29;20042;-61
2021/12/07 02:29:42;;;;;;;25.52;13.70;;;2.70;97.50;;;;;;4937202;29;20036;-62
2021/12/07 02:32:08;;;;;;;25.13;15.23;;;2.70;97.50;;;;;;4936289;29;20054;-62
2021/12/07 02:34:36;;;;;;;28.70;15.05;;;2.70;97.50;;;;;;4936076;29;20036;-62
2021/12/07 02:37:01;;;;;;;27.33;14.85;;;2.60;97.50;;;;;;4936348;29;20044;-63
2021/12/07 02:39:33;;;;;;;23.38;13.95;;;2.60;97.60;;;;;;4936283;29;20062;-63
2021/12/07 02:41:59;;;;;;;23.83;14.05;;;2.50;97.60;;;;;;4936188;29;20055;-62
2021/12/07 02:44:25;;;;;;;25.83;13.82;;;2.60;97.60;;;;;;4936907;29;20464;-63
2021/12/07 02:46:51;;;;;;;25.02;13.55;;;2.50;97.60;;;;;;4935893;29;20038;-61
2021/12/07 02:49:16;;;;;;;26.48;14.48;;;2.50;97.90;;;;;;4936567;29;20036;-61
2021/12/07 02:51:42;;;;;;;26.23;14.15;;;2.50;97.70;;;;;;4936365;29;20527;-62
2021/12/07 02:54:07;;;;;;;25.95;14.35;;;2.50;97.70;;;;;;4935468;29;20084;-62
2021/12/07 02:56:33;;;;;;;25.73;14.25;;;2.50;97.70;;;;;;4933882;29;20111;-62
2021/12/07 02:59:02;;;;;;;23.55;13.18;;;2.50;97.70;;;;;;4935842;29;20032;-62
2021/12/07 03:01:32;;;;;;;20.00;12.00;;;2.50;97.70;;;;;;4936151;29;20028;-62
2021/12/07 03:04:10;;;;;;;24.48;14.00;;;2.40;97.70;;;;;;4941811;28;20570;-62
2021/12/07 03:06:57;;;;;;;26.77;13.35;;;2.50;97.70;;;;;;4945573;29;20091;-62
2021/12/07 03:26:00;;;;;;;27.42;14.10;;;2.40;97.90;;;;;;4935751;29;20047;-62
2021/12/07 03:28:26;;;;;;;26.30;13.82;;;2.40;97.90;;;;;;4936320;29;20044;-61
2021/12/07 03:30:52;;;;;;;25.73;15.77;;;2.40;98.00;;;;;;4935366;29;20122;-62
2021/12/07 03:33:17;;;;;;;27.45;15.25;;;2.40;98.00;;;;;;4935290;29;20122;-62
2021/12/07 03:35:43;;;;;;;29.85;16.50;;;2.40;98.00;;;;;;4934682;29;20054;-62
2021/12/07 03:38:09;;;;;;;31.25;17.45;;;2.50;98.10;;;;;;4945690;28;20119;-62
2021/12/07 03:40:36;;;;;;;27.63;16.20;;;2.50;98.10;;;;;;4935772;29;20031;-63
2021/12/07 03:43:03;;;;;;;27.83;15.65;;;2.50;98.10;;;;;;4935044;29;20143;-63
2021/12/07 03:45:31;;;;;;;30.15;16.48;;;2.50;98.10;;;;;;4935645;29;20493;-62
2021/12/07 03:47:57;;;;;;;30.42;17.23;;;2.50;98.10;;;;;;4937446;29;20431;-62
2021/12/07 03:50:24;;;;;;;31.00;15.80;;;2.50;98.20;;;;;;4934972;29;20179;-62
2021/12/07 03:52:51;;;;;;;29.10;15.68;;;2.50;98.20;;;;;;4934274;29;20052;-62
2021/12/07 03:55:17;;;;;;;30.90;17.23;;;2.50;98.20;;;;;;4935416;29;20040;-62
2021/12/07 03:57:42;;;;;;;29.33;16.05;;;2.50;98.30;;;;;;4934866;29;20038;-62
2021/12/07 04:00:16;;;;;;;30.25;17.25;;;2.50;98.30;;;;;;4935327;29;20041;-62
2021/12/07 04:02:42;;;;;;;31.48;16.25;;;2.50;98.30;;;;;;4934797;29;20035;-62
2021/12/07 04:05:14;;;;;;;27.90;16.13;;;2.50;98.30;;;;;;4948863;29;20071;-62
2021/12/07 04:07:40;;;;;;;30.02;16.15;;;2.50;98.30;;;;;;4949802;28;20095;-62
2021/12/07 04:10:10;;;;;;;31.35;17.50;;;2.50;98.30;;;;;;4934346;29;20471;-62
2021/12/07 04:12:36;;;;;;;31.25;17.48;;;2.60;98.40;;;;;;4935009;29;20047;-63
2021/12/07 04:15:02;;;;;;;30.38;17.08;;;2.50;98.30;;;;;;4934287;29;20043;-64
2021/12/07 04:17:28;;;;;;;33.75;17.85;;;2.50;98.40;;;;;;4934482;29;20471;-62
2021/12/07 04:19:53;;;;;;;29.02;15.85;;;2.50;98.40;;;;;;4930579;29;20043;-62
2021/12/07 04:22:19;;;;;;;28.30;16.50;;;2.60;98.40;;;;;;4933926;29;20475;-62
2021/12/07 04:24:44;;;;;;;30.42;17.88;;;2.60;98.30;;;;;;4933087;29;20047;-62
2021/12/07 04:27:10;;;;;;;32.33;17.63;;;2.60;98.30;;;;;;4934632;29;20035;-62
2021/12/07 04:29:35;;;;;;;30.48;16.80;;;2.60;98.30;;;;;;4934641;29;20028;-61
2021/12/07 04:32:01;;;;;;;29.88;16.15;;;2.60;98.30;;;;;;4934310;29;20035;-62
2021/12/07 04:34:27;;;;;;;29.45;17.30;;;2.70;98.40;;;;;;4933104;29;20082;-61
2021/12/07 04:36:53;;;;;;;33.22;18.65;;;2.60;98.30;;;;;;4934376;29;20471;-62
2021/12/07 04:39:19;;;;;;;32.45;16.65;;;2.60;98.30;;;;;;4933644;29;20038;-62
2021/12/07 04:41:46;;;;;;;29.45;18.25;;;2.70;98.30;;;;;;4934452;29;20032;-62
2021/12/07 04:44:12;;;;;;;27.85;15.88;;;2.70;98.20;;;;;;4933910;29;20031;-61
2021/12/07 04:46:49;;;;;;;31.77;19.00;;;2.70;98.20;;;;;;4934712;29;20050;-62
2021/12/07 04:57:38;;;;;;;28.33;17.58;;;2.70;98.20;;;;;;4918993;29;20032;-61
2021/12/07 05:00:14;;;;;;;30.77;16.77;;;2.60;98.20;;;;;;4934371;29;20031;-62
2021/12/07 05:02:42;;;;;;;34.47;18.13;;;2.60;98.20;;;;;;4921853;29;20028;-62
2021/12/07 05:05:10;;;;;;;28.77;16.02;;;2.60;98.20;;;;;;4933583;29;20451;-62
2021/12/07 05:07:41;;;;;;;31.23;16.95;;;2.70;98.20;;;;;;4932705;29;20036;-63
2021/12/07 05:10:18;;;;;;;31.38;17.63;;;2.70;98.20;;;;;;4933112;29;20483;-63
2021/12/07 05:15:33;;;;;;;31.40;18.15;;;2.70;98.20;;;;;;4934374;29;20055;-62
2021/12/07 05:18:08;;;;;;;33.65;18.20;;;2.70;98.10;;;;;;4932638;29;20142;-62
2021/12/07 05:34:32;;;;;;;32.92;18.30;;;2.60;98.10;;;;;;4933831;29;20109;-62
2021/12/07 05:39:42;;;;;;;30.67;18.23;;;2.40;98.10;;;;;;4937482;29;20035;-63
2021/12/07 05:42:08;;;;;;;34.67;17.67;;;2.40;98.00;;;;;;4935901;29;20028;-62
2021/12/07 05:44:34;;;;;;;31.75;18.88;;;2.40;98.00;;;;;;4937822;29;20079;-63
2021/12/07 05:46:59;;;;;;;31.83;18.38;;;2.40;98.00;;;;;;4937422;29;20090;-63
2021/12/07 05:49:25;;;;;;;30.58;17.23;;;2.40;98.10;;;;;;4941084;29;20027;-62
2021/12/07 05:51:51;;;;;;;34.78;19.08;;;2.30;98.00;;;;;;4936762;29;20487;-62
2021/12/07 05:54:16;;;;;;;38.67;20.25;;;2.30;98.00;;;;;;4936974;29;20065;-63
2021/12/07 05:56:42;;;;;;;32.85;18.70;;;2.30;98.10;;;;;;4935528;29;20036;-62
2021/12/07 05:59:07;;;;;;;31.75;18.75;;;2.30;98.10;;;;;;4936320;29;20467;-63
2021/12/07 06:01:33;;;;;;;33.50;18.70;;;2.30;98.10;;;;;;4935367;29;20022;-62
2021/12/07 06:03:58;;;;;;;35.50;19.00;;;2.30;98.10;;;;;;4937216;29;20036;-62
2021/12/07 06:06:24;;;;;;;37.25;18.83;;;2.30;98.10;;;;;;4936596;29;20020;-63
2021/12/07 06:08:49;;;;;;;35.17;18.35;;;2.30;98.10;;;;;;4936658;29;20043;-63
2021/12/07 06:11:15;;;;;;;34.63;18.48;;;2.30;98.10;;;;;;4936593;29;20020;-62
2021/12/07 06:13:40;;;;;;;38.05;21.75;;;2.30;98.10;;;;;;4936467;29;20074;-62
2021/12/07 06:16:08;;;;;;;35.90;19.52;;;2.30;98.10;;;;;;4936923;29;20032;-62
2021/12/07 06:18:37;;;;;;;36.65;20.52;;;2.40;98.10;;;;;;4937041;29;20064;-62
2021/12/07 06:21:03;;;;;;;36.85;19.38;;;2.30;98.10;;;;;;4937195;29;20027;-62
2021/12/07 06:23:29;;;;;;;37.00;20.30;;;2.30;98.10;;;;;;4936678;29;20035;-62
2021/12/07 06:25:56;;;;;;;32.33;18.88;;;2.30;98.10;;;;;;4936850;29;20020;-62
2021/12/07 06:28:22;;;;;;;36.88;19.73;;;2.20;98.10;;;;;;4936637;29;20036;-62
2021/12/07 06:30:48;;;;;;;44.00;20.83;;;2.20;98.10;;;;;;4937092;29;20505;-62
2021/12/07 06:33:15;;;;;;;37.92;20.65;;;2.20;98.10;;;;;;4936096;29;20090;-62
2021/12/07 06:35:41;;;;;;;38.85;20.25;;;2.20;98.10;;;;;;4936006;29;20042;-62
2021/12/07 06:38:07;;;;;;;37.67;21.05;;;2.20;98.10;;;;;;4936138;29;20466;-62
2021/12/07 06:40:32;;;;;;;44.65;23.23;;;2.20;98.10;;;;;;4936805;29;20042;-63
2021/12/07 06:43:00;;;;;;;42.28;20.58;;;2.10;98.00;;;;;;4936566;29;20031;-62
2021/12/07 06:45:26;;;;;;;41.05;21.23;;;2.10;98.00;;;;;;4936048;29;20098;-63
2021/12/07 06:47:53;;;;;;;43.45;21.80;;;2.10;98.00;;;;;;4935041;29;20106;-61
2021/12/07 06:50:19;;;;;;;45.42;22.17;;;2.00;98.10;;;;;;4935877;29;20357;-61
2021/12/07 06:52:44;;;;;;;44.38;22.65;;;2.00;98.10;;;;;;4935943;29;20075;-63
2021/12/07 06:55:10;;;;;;;42.30;21.92;;;2.10;98.10;;;;;;4936341;29;20043;-64
2021/12/07 06:57:35;;;;;;;40.28;22.00;;;2.00;98.10;;;;;;4932434;29;20035;-63
2021/12/07 07:00:04;;;;;;;42.40;24.48;;;2.00;98.20;;;;;;4936256;29;20040;-63
2021/12/07 07:02:29;;;;;;;44.28;23.40;;;2.00;98.20;;;;;;4935756;29;20471;-63
2021/12/07 07:04:55;;;;;;;43.42;21.95;;;2.00;98.20;;;;;;4935598;29;20047;-63
2021/12/07 07:07:22;;;;;;;45.13;24.30;;;1.90;98.20;;;;;;4935560;29;20034;-62
2021/12/07 07:09:48;;;;;;;42.15;23.63;;;1.90;98.20;;;;;;4936084;29;20086;-62
2021/12/07 07:12:14;;;;;;;41.65;22.80;;;1.80;98.20;;;;;;4935611;29;20047;-63
2021/12/07 07:14:39;;;;;;;39.65;22.40;;;1.90;98.30;;;;;;4935882;29;20502;-63
2021/12/07 07:17:05;;;;;;;37.22;20.10;;;1.90;98.30;;;;;;4933846;29;20027;-62
2021/12/07 07:19:30;;;;;;;43.80;23.85;;;1.90;98.40;;;;;;4935864;29;20038;-63
2021/12/07 07:22:01;;;;;;;47.38;24.30;;;1.90;98.40;;;;;;4935441;29;20103;-63
2021/12/07 07:24:27;;;;;;;39.25;21.25;;;1.90;98.40;;;;;;4935835;29;20027;-63
2021/12/07 07:26:53;;;;;;;43.63;21.58;;;2.00;98.50;;;;;;4934923;29;20083;-62
2021/12/07 07:29:18;;;;;;;45.63;24.58;;;2.00;98.70;;;;;;4936169;29;20439;-63
2021/12/07 07:31:44;;;;;;;42.47;23.20;;;2.00;98.60;;;;;;4935479;29;20020;-62
2021/12/07 07:34:09;;;;;;;38.67;21.23;;;2.00;98.50;;;;;;4934658;29;20383;-61
2021/12/07 07:36:35;;;;;;;38.00;21.17;;;2.00;98.50;;;;;;4934916;29;20038;-62
2021/12/07 07:39:00;;;;;;;37.88;21.25;;;2.00;98.50;;;;;;4934559;29;20047;-62
2021/12/07 07:41:26;;;;;;;39.15;21.25;;;2.00;98.40;;;;;;4936004;29;20047;-62
2021/12/07 07:43:52;;;;;;;45.35;23.83;;;2.10;98.50;;;;;;4949986;28;20031;-62
2021/12/07 07:46:17;;;;;;;44.28;25.30;;;2.10;98.50;;;;;;4935085;29;20036;-62
2021/12/07 07:48:43;;;;;;;39.95;21.15;;;2.10;98.50;;;;;;4938106;29;20443;-62
2021/12/07 07:51:09;;;;;;;40.70;21.25;;;2.10;98.50;;;;;;4933690;29;20078;-61
2021/12/07 07:53:35;;;;;;;41.83;21.80;;;2.10;98.50;;;;;;4932429;29;20043;-61
2021/12/07 07:56:00;;;;;;;37.63;20.35;;;2.10;98.50;;;;;;4937920;29;20538;-61
2021/12/07 07:58:26;;;;;;;41.22;23.58;;;2.20;98.60;;;;;;4942862;29;20034;-62
2021/12/07 08:00:52;;;;;;;43.13;21.65;;;2.30;98.70;;;;;;4935265;29;20035;-62
2021/12/07 08:03:17;;;;;;;37.05;20.10;;;2.30;98.70;;;;;;4933850;29;20043;-62
2021/12/07 08:05:43;;;;;;;39.28;21.58;;;2.30;98.70;;;;;;4933721;29;20551;-61
2021/12/07 08:08:09;;;;;;;39.97;21.00;;;2.40;98.70;;;;;;4935863;28;20031;-61
2021/12/07 08:10:34;;;;;;;32.03;19.45;;;2.40;98.60;;;;;;4934318;29;20027;-61
2021/12/07 08:13:04;;;;;;;39.28;20.23;;;2.40;98.60;;;;;;4933198;29;20123;-62
2021/12/07 08:15:32;;;;;;;36.47;20.92;;;2.40;98.60;;;;;;4933577;29;20043;-61
2021/12/07 08:17:58;;;;;;;45.15;22.42;;;2.50;98.70;;;;;;4932676;29;20035;-62
2021/12/07 08:20:24;;;;;;;36.60;20.30;;;2.50;98.60;;;;;;4927872;29;20404;-62
2021/12/07 08:22:50;;;;;;;39.97;21.33;;;2.60;98.50;;;;;;4929640;29;20031;-62
2021/12/07 08:25:15;;;;;;;37.42;18.70;;;2.60;98.50;;;;;;4929035;29;20027;-62
2021/12/07 08:27:41;;;;;;;36.65;20.77;;;2.60;98.40;;;;;;4929340;29;20058;-62
2021/12/07 08:30:10;;;;;;;35.17;19.60;;;2.60;98.30;;;;;;4935244;29;20031;-62
2021/12/07 08:32:36;;;;;;;35.60;19.00;;;2.60;98.30;;;;;;4944864;28;20027;-62
2021/12/07 08:35:02;;;;;;;31.38;18.33;;;2.70;98.30;;;;;;4933610;29;20040;-62
2021/12/07 08:37:27;;;;;;;36.45;19.08;;;2.60;98.00;;;;;;4931451;29;20111;-61
2021/12/07 08:39:53;;;;;;;32.30;18.48;;;2.60;98.10;;;;;;4933655;29;20028;-62
2021/12/07 08:42:19;;;;;;;39.53;21.13;;;2.50;98.00;;;;;;4932866;29;20034;-61
2021/12/07 08:44:51;;;;;;;37.58;19.70;;;2.50;98.00;;;;;;4933245;29;20126;-60
2021/12/07 08:47:16;;;;;;;40.00;21.90;;;2.50;98.00;;;;;;4929334;29;20118;-61
2021/12/07 08:49:42;;;;;;;39.15;20.40;;;2.60;98.10;;;;;;4931960;29;20035;-61
2021/12/07 08:52:07;;;;;;;35.22;20.83;;;2.60;98.00;;;;;;4932678;29;20040;-61
2021/12/07 09:00:09;;;;;;;36.88;18.98;;;2.60;98.00;;;;;;4932681;29;20084;-61
2021/12/07 09:02:35;;;;;;;32.35;19.05;;;2.70;98.20;;;;;;4931860;29;20040;-61
2021/12/07 09:05:01;;;;;;;31.30;17.90;;;2.70;98.00;;;;;;4933052;29;20070;-60
2021/12/07 09:07:26;;;;;;;33.55;18.77;;;2.70;97.90;;;;;;4932950;29;20507;-61
2021/12/07 09:09:52;;;;;;;32.25;18.45;;;2.70;97.90;;;;;;4932441;29;20036;-61
2021/12/07 09:12:19;;;;;;;31.38;18.52;;;2.80;97.90;;;;;;4930088;29;20122;-62
2021/12/07 09:14:47;;;;;;;36.08;19.25;;;2.80;97.80;;;;;;4928947;29;20054;-61
2021/12/07 09:17:14;;;;;;;31.58;18.67;;;2.90;97.80;;;;;;4931253;29;20046;-62
2021/12/07 09:19:40;;;;;;;35.25;18.83;;;2.90;97.80;;;;;;4932275;29;20058;-62
2021/12/07 09:22:06;;;;;;;36.63;20.15;;;2.80;97.80;;;;;;4929143;29;20032;-61
2021/12/07 09:24:32;;;;;;;33.17;19.80;;;2.90;97.80;;;;;;4933702;29;20028;-62
2021/12/07 09:26:58;;;;;;;35.20;20.20;;;2.90;97.80;;;;;;4931803;29;20028;-62
2021/12/07 09:29:24;;;;;;;33.50;19.48;;;3.00;97.80;;;;;;4932745;29;20036;-62
2021/12/07 09:31:49;;;;;;;37.92;20.90;;;3.00;97.60;;;;;;4931181;29;20059;-62
2021/12/07 09:34:15;;;;;;;34.50;18.90;;;3.00;97.70;;;;;;4933069;29;20028;-62
2021/12/07 09:36:43;;;;;;;40.92;21.90;;;3.00;97.70;;;;;;4930830;29;20043;-62
2021/12/07 09:39:11;;;;;;;34.22;19.48;;;3.00;97.60;;;;;;4917781;29;20036;-61
2021/12/07 09:41:38;;;;;;;35.67;20.95;;;3.10;97.60;;;;;;4931733;29;20043;-61
2021/12/07 09:44:08;;;;;;;29.40;17.65;;;3.10;97.50;;;;;;4934059;29;20043;-62
2021/12/07 09:46:35;;;;;;;31.92;17.67;;;3.10;97.40;;;;;;4939176;28;20040;-62
2021/12/07 09:49:02;;;;;;;34.53;18.90;;;3.10;97.40;;;;;;4934541;29;20028;-61
2021/12/07 09:51:28;;;;;;;35.20;18.90;;;3.00;97.20;;;;;;4934128;29;20051;-61
2021/12/07 09:53:56;;;;;;;36.15;20.05;;;3.10;97.40;;;;;;4933129;29;20051;-61
2021/12/07 09:56:22;;;;;;;43.75;22.10;;;3.10;97.40;;;;;;4933623;29;20028;-61
2021/12/07 09:58:51;;;;;;;35.67;21.17;;;3.10;97.40;;;;;;4933361;29;20031;-61
2021/12/07 10:01:17;;;;;;;34.50;20.08;;;3.10;97.40;;;;;;4932864;29;20038;-61
2021/12/07 10:03:43;;;;;;;34.08;21.58;;;3.10;97.40;;;;;;4929544;29;20032;-61
2021/12/07 10:06:09;;;;;;;36.90;20.40;;;3.20;97.40;;;;;;4933955;29;20079;-61
2021/12/07 10:08:36;;;;;;;33.83;19.95;;;3.30;97.40;;;;;;4928034;29;20098;-61
2021/12/07 10:11:05;;;;;;;38.70;19.85;;;3.30;97.30;;;;;;4925156;29;20068;-61
2021/12/07 10:13:32;;;;;;;31.88;18.05;;;3.30;97.10;;;;;;4927651;29;20055;-61
2021/12/07 10:16:00;;;;;;;35.22;20.48;;;3.30;96.90;;;;;;4933155;29;20042;-62
2021/12/07 10:18:28;;;;;;;36.63;18.23;;;3.30;97.00;;;;;;4933559;29;20032;-61
2021/12/07 10:20:58;;;;;;;42.20;20.88;;;3.30;97.10;;;;;;4933331;29;20035;-62
2021/12/07 10:23:32;;;;;;;33.55;17.88;;;3.30;97.20;;;;;;4950623;29;20454;-62
2021/12/07 10:26:07;;;;;;;33.22;18.98;;;3.40;97.30;;;;;;4937229;29;20134;-62
2021/12/07 10:28:40;;;;;;;33.35;19.30;;;3.50;97.30;;;;;;4929431;29;20115;-62
2021/12/07 10:31:08;;;;;;;39.17;21.67;;;3.60;97.20;;;;;;4942877;29;20031;-61
2021/12/07 10:33:43;;;;;;;35.70;20.05;;;3.50;97.20;;;;;;4935859;29;20035;-62
2021/12/07 10:36:16;;;;;;;32.65;18.52;;;3.60;97.20;;;;;;4936112;29;20071;-61
2021/12/07 10:38:47;;;;;;;37.20;19.83;;;3.70;97.10;;;;;;4933047;29;20039;-64
2021/12/07 10:41:17;;;;;;;35.83;20.10;;;3.70;97.00;;;;;;4935821;29;20027;-62
2021/12/07 10:43:49;;;;;;;33.05;19.63;;;3.70;97.00;;;;;;4933519;29;20054;-63
2021/12/07 10:46:43;;;;;;;36.78;19.80;;;3.70;96.90;;;;;;4935381;29;20038;-62
2021/12/07 10:49:32;;;;;;;36.08;19.38;;;3.80;96.90;;;;;;4927819;29;20553;-63
2021/12/07 10:52:08;;;;;;;40.42;21.60;;;3.70;96.90;;;;;;4937255;29;20058;-63
2021/12/07 10:54:39;;;;;;;34.55;19.35;;;3.80;96.90;;;;;;4934302;29;20609;-62
2021/12/07 10:57:07;;;;;;;38.45;20.48;;;3.90;96.90;;;;;;4935981;29;20032;-62
2021/12/07 10:59:34;;;;;;;39.03;21.65;;;3.90;96.60;;;;;;4935886;29;20031;-62
2021/12/07 11:02:11;;;;;;;38.05;20.30;;;3.90;96.70;;;;;;4936245;29;20376;-62
2021/12/07 11:04:37;;;;;;;42.42;22.23;;;3.90;96.70;;;;;;4930309;28;20032;-62
2021/12/07 11:07:21;;;;;;;35.72;21.27;;;3.90;96.70;;;;;;4936428;29;20123;-62
2021/12/07 11:10:04;;;;;;;38.53;20.48;;;4.00;96.60;;;;;;4936426;29;20031;-62
2021/12/07 11:12:45;;;;;;;40.13;20.80;;;3.90;96.40;;;;;;4936332;29;20038;-62
2021/12/07 11:15:15;;;;;;;47.67;21.17;;;3.90;96.50;;;;;;4936435;29;20051;-62
2021/12/07 11:17:42;;;;;;;38.17;21.58;;;3.90;96.50;;;;;;4936368;29;20043;-62
2021/12/07 11:20:08;;;;;;;38.58;21.23;;;4.00;96.50;;;;;;4936245;29;20038;-62
2021/12/07 11:22:38;;;;;;;42.90;21.75;;;4.00;96.50;;;;;;4934880;29;20032;-62
2021/12/07 11:25:05;;;;;;;39.97;21.48;;;4.00;96.50;;;;;;4926439;29;20036;-62
2021/12/07 11:30:27;;;;;;;40.60;20.45;;;4.00;96.30;;;;;;4923117;29;20032;-62
2021/12/07 11:32:57;;;;;;;38.45;20.33;;;4.00;96.30;;;;;;4924291;29;20031;-62
2021/12/07 11:35:35;;;;;;;36.15;20.98;;;4.00;96.30;;;;;;4935599;29;20118;-62
2021/12/07 11:38:04;;;;;;;39.30;20.60;;;4.00;96.40;;;;;;4935302;29;20032;-62
2021/12/07 11:40:38;;;;;;;42.45;22.75;;;4.00;96.20;;;;;;4935660;29;20073;-62
2021/12/07 11:43:18;;;;;;;36.03;20.27;;;4.00;96.10;;;;;;4926895;29;20535;-62
2021/12/07 11:45:46;;;;;;;74.78;24.60;;;4.00;96.10;;;;;;4935627;29;20032;-61
2021/12/07 11:48:12;;;;;;;50.10;22.52;;;3.90;96.10;;;;;;4937990;29;20031;-61
2021/12/07 11:50:44;;;;;;;44.58;22.58;;;4.00;96.20;;;;;;4934417;29;20035;-62
2021/12/07 11:53:11;;;;;;;40.38;20.67;;;4.00;96.10;;;;;;4935079;29;20054;-62
2021/12/07 11:55:40;;;;;;;43.08;23.33;;;4.00;96.20;;;;;;4935117;28;20071;-62
2021/12/07 11:58:07;;;;;;;41.08;22.40;;;4.10;96.20;;;;;;4934896;29;20028;-62
2021/12/07 12:00:38;;;;;;;41.70;21.73;;;4.10;96.10;;;;;;4935229;29;20431;-61
2021/12/07 12:03:07;;;;;;;43.03;21.95;;;4.10;96.10;;;;;;4947425;29;20059;-61
2021/12/07 12:05:34;;;;;;;41.10;22.63;;;4.10;96.10;;;;;;4935173;29;20028;-61
2021/12/07 12:08:01;;;;;;;38.38;21.35;;;4.20;96.10;;;;;;4934607;29;20036;-61
2021/12/07 12:10:29;;;;;;;47.42;21.95;;;4.10;96.00;;;;;;4935320;29;20031;-61
2021/12/07 12:13:15;;;;;;;43.03;22.55;;;4.10;96.00;;;;;;4934326;29;20136;-62
2021/12/07 12:16:10;;;;;;;58.38;23.50;;;4.10;96.00;;;;;;4934788;29;20067;-62
2021/12/07 12:18:52;;;;;;;78.00;25.73;;;4.10;95.80;;;;;;4929572;29;20086;-62
2021/12/07 12:21:40;;;;;;;36.80;19.98;;;4.10;95.90;;;;;;4935650;29;20075;-62
2021/12/07 12:24:26;;;;;;;44.40;23.15;;;4.10;95.80;;;;;;4934023;29;20032;-62
2021/12/07 12:27:14;;;;;;;40.78;22.10;;;4.00;95.80;;;;;;4934665;29;20054;-62
2021/12/07 12:29:42;;;;;;;45.85;23.55;;;4.00;95.70;;;;;;4933936;29;20024;-62
2021/12/07 12:32:08;;;;;;;45.05;24.33;;;4.00;95.70;;;;;;4934268;29;20046;-61
2021/12/07 12:34:38;;;;;;;43.95;23.88;;;3.90;95.80;;;;;;4934307;29;20036;-62
2021/12/07 12:37:14;;;;;;;44.30;22.48;;;3.90;95.90;;;;;;4934009;29;20026;-61
2021/12/07 12:39:47;;;;;;;43.85;24.33;;;4.00;95.90;;;;;;4934204;28;20111;-61
2021/12/07 12:42:25;;;;;;;37.08;21.55;;;4.00;95.90;;;;;;4933923;29;20054;-61
2021/12/07 12:45:16;;;;;;;39.40;22.45;;;4.00;95.90;;;;;;4934488;29;20019;-61
2021/12/07 12:47:41;;;;;;;37.53;20.15;;;4.00;95.90;;;;;;4936837;29;20267;-61
2021/12/07 12:50:19;;;;;;;41.75;22.50;;;4.00;95.90;;;;;;4934339;29;20115;-61
2021/12/07 12:52:50;;;;;;;41.58;24.00;;;4.10;95.80;;;;;;4933255;29;20408;-62
2021/12/07 12:55:32;;;;;;;41.22;22.17;;;4.10;95.90;;;;;;4934354;29;20052;-61
2021/12/07 12:57:59;;;;;;;41.75;24.17;;;4.10;95.90;;;;;;4946930;29;20121;-61
2021/12/07 13:00:56;;;;;;;44.65;22.45;;;4.10;95.90;;;;;;4934057;29;20423;-62
2021/12/07 13:03:22;;;;;;;40.55;22.25;;;4.20;95.90;;;;;;4934124;29;20035;-61
2021/12/07 13:05:59;;;;;;;38.55;22.35;;;4.20;95.80;;;;;;4933553;29;20254;-62
2021/12/07 13:08:25;;;;;;;40.88;21.50;;;4.20;95.90;;;;;;4933767;29;20384;-61
2021/12/07 13:11:00;;;;;;;49.00;25.50;;;4.20;95.90;;;;;;4934376;29;20032;-62
2021/12/07 13:13:29;;;;;;;46.35;23.77;;;4.20;95.90;;;;;;4933719;29;20546;-61
2021/12/07 13:15:55;;;;;;;42.40;23.27;;;4.30;95.90;;;;;;4934069;29;20403;-61
2021/12/07 13:18:24;;;;;;;40.97;22.90;;;4.30;95.80;;;;;;4933648;29;20036;-61
2021/12/07 13:20:50;;;;;;;43.60;23.75;;;4.30;95.80;;;;;;4933841;29;20035;-61
2021/12/07 13:23:16;;;;;;;41.72;23.17;;;4.30;95.70;;;;;;4933519;29;20074;-61
2021/12/07 13:25:51;;;;;;;43.40;21.27;;;4.20;95.60;;;;;;4933655;29;20034;-61
2021/12/07 13:28:26;;;;;;;45.20;23.67;;;4.20;95.60;;;;;;4931776;29;20054;-60
2021/12/07 13:31:11;;;;;;;47.50;22.95;;;4.20;95.70;;;;;;4933428;29;20368;-61
2021/12/07 13:33:43;;;;;;;45.60;23.00;;;4.20;95.70;;;;;;4933189;29;20562;-62
2021/12/07 13:36:33;;;;;;;36.33;19.92;;;4.20;95.70;;;;;;4933708;29;20507;-61
2021/12/07 13:39:34;;;;;;;39.00;21.38;;;4.20;95.60;;;;;;4933338;29;20099;-62
2021/12/07 13:42:23;;;;;;;51.55;23.73;;;4.20;95.60;;;;;;4933777;29;20502;-62
2021/12/07 13:45:03;;;;;;;39.85;20.88;;;4.10;95.50;;;;;;4915252;29;20036;-62
2021/12/07 13:47:43;;;;;;;37.28;20.02;;;4.10;95.50;;;;;;4917547;29;20028;-61
2021/12/07 13:50:12;;;;;;;39.47;22.17;;;4.10;95.50;;;;;;4934858;28;20028;-61
2021/12/07 13:52:45;;;;;;;35.25;19.88;;;4.10;95.50;;;;;;4932972;29;20054;-61
2021/12/07 13:55:16;;;;;;;35.70;21.25;;;4.10;95.60;;;;;;4934061;29;20098;-61
2021/12/07 13:57:48;;;;;;;38.47;20.60;;;4.10;95.50;;;;;;4932944;29;20086;-61
2021/12/07 14:00:21;;;;;;;43.40;20.92;;;4.00;95.50;;;;;;4937292;29;20531;-62
2021/12/07 14:02:55;;;;;;;42.83;22.67;;;4.00;95.50;;;;;;4936822;29;20146;-61
2021/12/07 14:05:36;;;;;;;36.53;21.27;;;4.00;95.60;;;;;;4950129;28;20028;-61
2021/12/07 14:08:04;;;;;;;39.58;22.15;;;4.10;95.60;;;;;;4936102;29;20379;-62
2021/12/07 14:10:32;;;;;;;45.72;23.95;;;4.00;95.50;;;;;;4937239;29;20035;-62
2021/12/07 14:13:02;;;;;;;40.08;21.75;;;4.00;95.50;;;;;;4935333;29;20428;-61